Time;durP1;ratioP1;P1;durP2;ratioP2;P2;SDS_P1;SDS_P2;PMS_P1;PMS_P2;Temp;Humidity;BMP_temperature;BMP_pressure;BME280_temperature;BME280_humidity;BME280_pressure;Samples;Min_cycle;Max_cycle;Signal;HPM_P1;HPM_P2
2021/09/24 00:00:28;;;;;;;12.10;7.30;;;;;;;13.60;100.00;101331.84;6277020;22;20083;-75
2021/09/24 00:03:13;;;;;;;13.60;7.53;;;;;;;13.47;100.00;101324.22;6277271;22;20161;-75
2021/09/24 00:05:59;;;;;;;13.88;7.55;;;;;;;13.35;100.00;101327.94;6274649;22;20034;-75
2021/09/24 00:08:45;;;;;;;13.40;8.25;;;;;;;13.20;100.00;101327.38;6275601;22;20035;-75
2021/09/24 00:11:31;;;;;;;10.25;7.93;;;;;;;13.07;100.00;101329.34;6276837;22;20073;-75
2021/09/24 00:14:17;;;;;;;13.77;7.97;;;;;;;13.08;100.00;101328.47;6276040;22;20008;-75
2021/09/24 00:17:03;;;;;;;12.95;8.50;;;;;;;12.70;100.00;101327.34;6274913;22;20014;-74
2021/09/24 00:19:49;;;;;;;14.77;8.40;;;;;;;12.59;100.00;101324.91;6277010;22;20018;-74
2021/09/24 00:22:35;;;;;;;12.18;8.52;;;;;;;12.84;100.00;101320.09;6276612;22;20015;-74
2021/09/24 00:25:21;;;;;;;12.48;8.82;;;;;;;12.85;100.00;101325.31;6277103;22;20003;-75
2021/09/24 00:28:08;;;;;;;11.82;8.68;;;;;;;13.07;100.00;101334.59;6274605;22;20007;-75
2021/09/24 00:30:54;;;;;;;14.13;8.10;;;;;;;12.59;100.00;101335.41;6274471;22;20369;-75
2021/09/24 00:33:40;;;;;;;13.65;9.55;;;;;;;12.64;100.00;101336.19;6275571;22;20012;-75
2021/09/24 00:36:25;;;;;;;11.48;8.52;;;;;;;12.57;100.00;101334.56;6275007;22;20015;-75
2021/09/24 00:39:11;;;;;;;15.20;8.50;;;;;;;12.76;100.00;101322.84;6274184;22;20061;-75
2021/09/24 00:41:57;;;;;;;11.80;7.93;;;;;;;12.56;100.00;101324.94;6274479;22;20087;-75
2021/09/24 00:44:47;;;;;;;11.55;7.70;;;;;;;12.55;100.00;101320.59;6276971;22;20003;-75
2021/09/24 00:47:33;;;;;;;10.25;7.22;;;;;;;12.49;100.00;101325.03;6276376;22;20417;-74
2021/09/24 00:50:19;;;;;;;11.40;7.60;;;;;;;12.76;100.00;101328.13;6275980;22;20008;-75
2021/09/24 00:53:05;;;;;;;15.02;7.80;;;;;;;12.41;100.00;101322.53;6275397;22;20414;-76
2021/09/24 00:55:51;;;;;;;11.88;8.07;;;;;;;12.85;100.00;101321.81;6275691;22;20395;-75
2021/09/24 00:58:37;;;;;;;10.52;7.75;;;;;;;12.60;100.00;101329.25;6276693;22;20008;-74
2021/09/24 01:01:23;;;;;;;10.30;7.10;;;;;;;12.74;100.00;101318.53;6278930;22;20003;-75
2021/09/24 01:04:09;;;;;;;11.48;7.57;;;;;;;12.34;100.00;101323.53;6277070;22;20007;-75
2021/09/24 01:06:55;;;;;;;11.73;7.70;;;;;;;12.19;100.00;101322.88;6278053;22;20003;-76
2021/09/24 01:09:41;;;;;;;9.88;7.32;;;;;;;12.25;100.00;101328.03;6278606;22;20010;-75
2021/09/24 01:12:27;;;;;;;11.48;7.65;;;;;;;12.40;100.00;101328.69;6276617;22;20292;-75
2021/09/24 01:15:16;;;;;;;14.30;7.68;;;;;;;12.46;100.00;101325.13;6276312;22;20086;-76
2021/09/24 01:18:02;;;;;;;14.65;8.15;;;;;;;12.29;100.00;101316.59;6278115;22;20035;-76
2021/09/24 01:20:53;;;;;;;11.27;7.72;;;;;;;12.85;100.00;101311.28;6277360;22;20008;-75
2021/09/24 01:23:39;;;;;;;11.10;7.50;;;;;;;12.56;100.00;101311.81;6277701;22;20011;-75
2021/09/24 01:26:25;;;;;;;13.18;7.53;;;;;;;12.39;100.00;101300.69;6277298;22;20457;-76
2021/09/24 01:29:11;;;;;;;11.88;7.47;;;;;;;12.50;100.00;101298.75;6276715;22;20008;-75
2021/09/24 01:31:57;;;;;;;10.00;6.78;;;;;;;12.49;100.00;101304.91;6276478;22;20098;-76
2021/09/24 01:34:42;;;;;;;9.30;7.10;;;;;;;12.67;100.00;101299.34;6276717;22;20000;-75
2021/09/24 01:37:28;;;;;;;10.77;7.28;;;;;;;12.40;100.00;101299.78;6277010;22;20011;-76
2021/09/24 01:40:19;;;;;;;11.95;7.05;;;;;;;12.52;100.00;101299.59;6277266;22;20015;-76
2021/09/24 01:43:05;;;;;;;11.23;7.65;;;;;;;12.60;100.00;101300.34;6277942;22;20004;-75
2021/09/24 01:45:51;;;;;;;11.30;7.30;;;;;;;12.16;100.00;101300.16;6276664;22;20418;-75
2021/09/24 01:48:36;;;;;;;10.20;7.55;;;;;;;12.49;100.00;101301.38;6277692;22;20039;-75
2021/09/24 01:51:22;;;;;;;11.65;7.00;;;;;;;12.59;100.00;101300.38;6276629;22;20007;-76
2021/09/24 01:54:09;;;;;;;10.43;7.63;;;;;;;12.62;100.00;101297.69;6277018;22;20082;-75
2021/09/24 01:56:55;;;;;;;12.15;7.18;;;;;;;13.00;100.00;101309.31;6278422;22;20007;-75
2021/09/24 01:59:40;;;;;;;11.73;7.25;;;;;;;12.94;100.00;101303.28;6278035;22;20007;-74
2021/09/24 02:02:26;;;;;;;9.80;7.65;;;;;;;13.05;100.00;101294.31;6276022;22;20425;-75
2021/09/24 02:05:12;;;;;;;11.45;7.55;;;;;;;12.82;100.00;101306.97;6275173;22;20042;-74
2021/09/24 02:07:58;;;;;;;13.95;7.50;;;;;;;13.00;100.00;101295.28;6277853;22;20065;-75
2021/09/24 02:10:44;;;;;;;9.73;7.13;;;;;;;12.82;100.00;101300.84;6277048;22;20008;-74
2021/09/24 02:13:29;;;;;;;9.38;6.53;;;;;;;12.96;100.00;101302.34;6276547;22;20086;-75
2021/09/24 02:16:15;;;;;;;10.35;6.55;;;;;;;13.25;100.00;101305.34;6276478;22;20004;-74
2021/09/24 02:19:01;;;;;;;11.07;6.93;;;;;;;12.99;100.00;101301.44;6276483;22;20082;-74
2021/09/24 02:21:47;;;;;;;10.38;6.90;;;;;;;12.79;100.00;101296.53;6278659;22;20029;-74
2021/09/24 02:24:33;;;;;;;8.95;7.22;;;;;;;12.46;100.00;101302.31;6275776;22;20007;-74
2021/09/24 02:27:19;;;;;;;10.40;7.00;;;;;;;12.55;100.00;101299.56;6276839;22;20007;-75
2021/09/24 02:30:05;;;;;;;10.05;7.18;;;;;;;12.26;100.00;101296.50;6277473;22;20292;-75
2021/09/24 02:32:51;;;;;;;11.63;7.85;;;;;;;12.32;100.00;101296.41;6277890;22;20003;-75
2021/09/24 02:35:37;;;;;;;12.18;7.18;;;;;;;11.82;100.00;101295.41;6275564;22;20076;-74
2021/09/24 02:38:23;;;;;;;10.60;7.70;;;;;;;12.44;100.00;101298.84;6278030;22;20014;-74
2021/09/24 02:41:08;;;;;;;10.60;7.43;;;;;;;12.33;100.00;101300.78;6277616;22;20007;-73
2021/09/24 02:43:54;;;;;;;11.25;7.53;;;;;;;12.13;100.00;101297.56;6276286;22;20038;-74
2021/09/24 02:46:40;;;;;;;12.13;7.40;;;;;;;11.77;100.00;101302.47;6276003;22;20394;-74
2021/09/24 02:49:26;;;;;;;12.25;7.18;;;;;;;12.06;100.00;101295.91;6275815;22;20004;-74
2021/09/24 02:52:12;;;;;;;9.98;7.43;;;;;;;12.42;100.00;101289.25;6275512;22;20004;-74
2021/09/24 02:54:58;;;;;;;10.27;6.80;;;;;;;12.23;100.00;101290.44;6276839;22;20007;-75
2021/09/24 02:57:43;;;;;;;9.38;6.97;;;;;;;12.00;100.00;101289.88;6277697;22;20011;-75
2021/09/24 03:00:29;;;;;;;14.07;7.22;;;;;;;12.68;100.00;101287.94;6275637;22;20008;-75
2021/09/24 03:03:15;;;;;;;11.05;6.90;;;;;;;12.57;100.00;101287.25;6276062;22;20294;-75
2021/09/24 03:06:01;;;;;;;9.90;6.88;;;;;;;12.89;100.00;101278.78;6277239;22;20421;-73
2021/09/24 03:08:47;;;;;;;11.95;6.85;;;;;;;12.09;100.00;101271.41;6275159;22;20041;-74
2021/09/24 03:11:33;;;;;;;8.60;6.90;;;;;;;12.59;100.00;101279.34;6276227;22;20090;-74
2021/09/24 03:14:19;;;;;;;10.10;6.65;;;;;;;12.60;100.00;101273.19;6275429;22;20061;-74
2021/09/24 03:17:04;;;;;;;11.98;6.70;;;;;;;12.93;100.00;101264.69;6277317;22;20014;-74
2021/09/24 03:19:50;;;;;;;12.45;6.97;;;;;;;12.77;100.00;101265.84;6278339;22;20004;-75
2021/09/24 03:22:36;;;;;;;11.80;6.28;;;;;;;12.10;100.00;101254.72;6277659;22;20062;-75
2021/09/24 03:25:22;;;;;;;9.82;6.45;;;;;;;12.17;100.00;101246.72;6276983;22;20003;-75
2021/09/24 03:28:10;;;;;;;10.93;6.90;;;;;;;12.13;100.00;101242.41;6275885;22;20406;-74
2021/09/24 03:30:56;;;;;;;8.88;6.75;;;;;;;13.10;100.00;101241.63;6275884;22;20543;-74
2021/09/24 03:33:42;;;;;;;8.63;6.55;;;;;;;12.05;100.00;101231.16;6275814;22;20008;-75
2021/09/24 03:36:28;;;;;;;9.63;6.47;;;;;;;12.21;100.00;101216.00;6275520;22;20064;-75
2021/09/24 03:39:14;;;;;;;8.98;6.43;;;;;;;12.48;100.00;101221.69;6275653;22;20418;-75
2021/09/24 03:42:00;;;;;;;11.15;6.93;;;;;;;12.50;100.00;101222.50;6275047;22;20306;-75
2021/09/24 03:44:46;;;;;;;9.38;6.20;;;;;;;12.45;100.00;101216.47;6275258;22;20095;-75
2021/09/24 03:47:31;;;;;;;10.73;6.55;;;;;;;11.97;100.00;101214.66;6275501;22;20031;-75
2021/09/24 03:50:17;;;;;;;9.50;6.45;;;;;;;12.06;100.00;101217.13;6275306;22;20014;-74
2021/09/24 03:53:03;;;;;;;8.88;6.80;;;;;;;11.96;100.00;101214.66;6276825;22;20027;-75
2021/09/24 03:55:52;;;;;;;10.05;7.28;;;;;;;11.92;100.00;101218.22;6274942;22;20460;-74
2021/09/24 03:58:38;;;;;;;10.07;7.13;;;;;;;12.54;100.00;101216.31;6274184;22;20018;-74
2021/09/24 04:01:24;;;;;;;10.85;7.20;;;;;;;12.45;100.00;101224.38;6277120;22;20371;-75
2021/09/24 04:04:09;;;;;;;13.18;7.32;;;;;;;12.33;100.00;101221.94;6276098;22;20003;-75
2021/09/24 04:06:55;;;;;;;12.15;6.93;;;;;;;12.75;100.00;101226.47;6276979;22;20105;-75
2021/09/24 04:09:41;;;;;;;9.75;7.10;;;;;;;12.75;100.00;101217.72;6278364;22;20004;-75
2021/09/24 04:12:27;;;;;;;11.00;7.07;;;;;;;12.42;100.00;101211.28;6276773;22;20019;-75
2021/09/24 04:15:13;;;;;;;10.18;7.07;;;;;;;12.41;100.00;101203.41;6275803;22;20011;-75
2021/09/24 04:17:58;;;;;;;10.38;6.85;;;;;;;12.20;100.00;101191.53;6274405;22;20007;-74
2021/09/24 04:20:44;;;;;;;10.13;7.07;;;;;;;12.71;100.00;101185.34;6277293;22;20502;-74
2021/09/24 04:23:30;;;;;;;9.13;6.93;;;;;;;12.70;100.00;101180.13;6275221;22;20015;-75
2021/09/24 04:26:16;;;;;;;10.15;7.28;;;;;;;12.78;100.00;101167.69;6275067;22;20313;-75
2021/09/24 04:29:05;;;;;;;11.57;6.88;;;;;;;12.49;100.00;101157.72;6274457;22;20460;-75
2021/09/24 04:31:51;;;;;;;8.90;6.80;;;;;;;12.59;100.00;101155.78;6274568;22;20030;-75
2021/09/24 04:34:37;;;;;;;9.40;7.10;;;;;;;12.96;100.00;101157.69;6275534;22;20012;-75
2021/09/24 04:37:22;;;;;;;12.77;6.85;;;;;;;12.67;100.00;101161.78;6277349;22;20011;-75
2021/09/24 04:40:09;;;;;;;10.73;6.82;;;;;;;12.92;100.00;101168.28;6274901;22;20381;-75
2021/09/24 04:42:55;;;;;;;13.82;7.45;;;;;;;13.57;100.00;101184.47;6274942;22;20004;-75
2021/09/24 04:45:40;;;;;;;9.85;7.45;;;;;;;12.77;100.00;101186.97;6275683;22;20073;-76
2021/09/24 04:48:26;;;;;;;13.48;7.00;;;;;;;12.93;100.00;101189.28;6275007;22;20086;-75
2021/09/24 04:51:12;;;;;;;11.73;7.07;;;;;;;12.72;100.00;101184.44;6276276;22;20003;-75
2021/09/24 04:53:58;;;;;;;13.88;6.57;;;;;;;12.56;100.00;101185.63;6274917;22;20003;-75
2021/09/24 04:56:44;;;;;;;12.05;6.95;;;;;;;12.91;100.00;101183.19;6276750;22;20291;-75
2021/09/24 04:59:30;;;;;;;14.93;6.95;;;;;;;13.26;100.00;101174.63;6276493;22;20086;-74
2021/09/24 05:02:16;;;;;;;9.07;6.63;;;;;;;12.68;100.00;101161.75;6275105;22;20023;-75
2021/09/24 05:05:02;;;;;;;10.70;7.25;;;;;;;13.00;100.00;101163.75;6276366;22;20014;-74
2021/09/24 05:07:48;;;;;;;13.77;7.60;;;;;;;12.73;100.00;101156.38;6276529;22;20296;-75
2021/09/24 05:10:34;;;;;;;8.30;6.57;;;;;;;13.11;100.00;101164.44;6276549;22;19999;-75
2021/09/24 05:13:20;;;;;;;8.35;6.75;;;;;;;12.67;100.00;101175.78;6275658;22;20014;-75
2021/09/24 05:16:05;;;;;;;16.05;7.35;;;;;;;12.94;100.00;101185.75;6274962;22;20035;-75
2021/09/24 05:18:51;;;;;;;12.85;7.05;;;;;;;12.91;100.00;101190.22;6273851;22;20385;-75
2021/09/24 05:21:37;;;;;;;9.38;6.55;;;;;;;13.02;100.00;101188.28;6276493;22;20345;-75
2021/09/24 05:24:23;;;;;;;9.90;7.00;;;;;;;12.62;100.00;101188.13;6277162;22;20007;-75
2021/09/24 05:27:09;;;;;;;11.95;7.40;;;;;;;12.85;100.00;101199.09;6276066;22;20004;-74
2021/09/24 05:29:54;;;;;;;14.38;7.47;;;;;;;12.89;100.00;101206.03;6274254;22;20019;-75
2021/09/24 05:32:40;;;;;;;10.65;7.15;;;;;;;13.27;100.00;101200.88;6276397;22;20051;-75
2021/09/24 05:35:26;;;;;;;11.75;6.82;;;;;;;13.80;100.00;101194.47;6275596;22;20008;-76
2021/09/24 05:38:12;;;;;;;11.52;6.97;;;;;;;13.82;100.00;101187.38;6275378;22;20334;-75
2021/09/24 05:41:07;;;;;;;14.27;7.60;;;;;;;13.58;100.00;101173.03;6275262;22;20004;-75
2021/09/24 05:43:53;;;;;;;11.40;7.38;;;;;;;14.20;100.00;101179.44;6276490;22;20003;-76
2021/09/24 05:46:41;;;;;;;18.65;7.90;;;;;;;14.05;100.00;101193.88;6276506;22;20004;-76
2021/09/24 05:49:29;;;;;;;15.30;7.80;;;;;;;13.85;100.00;101195.22;6276857;22;20411;-76
2021/09/24 05:52:15;;;;;;;12.77;7.32;;;;;;;13.96;100.00;101170.38;6276169;22;20465;-77
2021/09/24 05:55:01;;;;;;;12.50;7.32;;;;;;;14.12;100.00;101157.69;6276761;22;20076;-75
2021/09/24 05:57:48;;;;;;;14.25;7.38;;;;;;;13.81;100.00;101173.38;6279580;22;20015;-76
2021/09/24 06:00:34;;;;;;;8.57;6.75;;;;;;;14.06;100.00;101179.78;6277465;22;20003;-76
2021/09/24 06:03:20;;;;;;;11.65;7.07;;;;;;;14.20;100.00;101188.19;6276814;22;19999;-75
2021/09/24 06:06:09;;;;;;;17.40;7.57;;;;;;;13.95;100.00;101186.22;6276491;22;20464;-78
2021/09/24 06:08:55;;;;;;;9.80;6.82;;;;;;;13.63;100.00;101199.25;6278213;22;20003;-75
2021/09/24 06:11:41;;;;;;;10.55;6.82;;;;;;;14.07;100.00;101181.50;6277786;22;20106;-77
2021/09/24 06:14:26;;;;;;;12.35;7.03;;;;;;;14.34;100.00;101170.31;6276401;22;20018;-76
2021/09/24 06:17:12;;;;;;;10.07;6.80;;;;;;;13.96;100.00;101172.13;6276456;22;20007;-76
2021/09/24 06:19:58;;;;;;;9.13;7.00;;;;;;;13.73;100.00;101179.69;6276738;22;20008;-76
2021/09/24 06:22:46;;;;;;;8.85;6.47;;;;;;;14.19;100.00;101178.56;6277792;22;20008;-75
2021/09/24 06:25:32;;;;;;;11.38;6.90;;;;;;;13.85;100.00;101171.53;6276148;22;20035;-76
2021/09/24 06:28:18;;;;;;;7.90;6.40;;;;;;;14.19;100.00;101168.03;6278040;22;20386;-75
2021/09/24 06:31:04;;;;;;;10.45;6.07;;;;;;;14.46;100.00;101188.47;6276284;22;20318;-76
2021/09/24 06:33:50;;;;;;;12.63;7.30;;;;;;;14.23;100.00;101189.94;6277438;22;20019;-74
2021/09/24 06:36:35;;;;;;;13.02;6.88;;;;;;;14.48;100.00;101206.88;6275868;22;20008;-76
2021/09/24 06:39:21;;;;;;;11.13;7.40;;;;;;;14.91;98.75;101201.34;6275463;22;20091;-76
2021/09/24 06:42:07;;;;;;;16.10;7.13;;;;;;;14.68;99.10;101194.88;6275429;22;20003;-74
2021/09/24 06:44:57;;;;;;;10.05;7.63;;;;;;;14.78;97.83;101190.22;6277906;22;20035;-73
2021/09/24 06:47:44;;;;;;;15.77;7.32;;;;;;;14.84;96.28;101196.22;6275299;22;20003;-76
2021/09/24 06:50:30;;;;;;;11.75;7.30;;;;;;;15.50;92.03;101187.28;6269689;22;20318;-77
2021/09/24 06:53:15;;;;;;;10.77;7.57;;;;;;;15.31;92.78;101186.94;6269934;22;20407;-76
2021/09/24 06:56:01;;;;;;;13.38;7.68;;;;;;;15.82;88.62;101189.81;6270317;22;20072;-76
2021/09/24 06:58:47;;;;;;;13.25;8.02;;;;;;;15.62;89.41;101185.16;6270483;22;20378;-77
2021/09/24 07:01:33;;;;;;;9.75;7.20;;;;;;;15.93;88.87;101171.84;6269497;22;20011;-77
2021/09/24 07:04:19;;;;;;;8.93;7.25;;;;;;;16.39;84.38;101180.88;6269956;22;20007;-77
2021/09/24 07:07:04;;;;;;;20.80;7.57;;;;;;;16.07;85.52;101169.66;6270327;22;20007;-77
2021/09/24 07:09:50;;;;;;;10.15;7.45;;;;;;;16.50;83.55;101177.88;6269441;22;20065;-77
2021/09/24 07:12:36;;;;;;;12.57;8.02;;;;;;;16.55;83.16;101173.31;6269164;22;20027;-77
2021/09/24 07:15:22;;;;;;;14.40;8.23;;;;;;;16.75;82.15;101179.63;6270498;22;20019;-76
2021/09/24 07:18:08;;;;;;;11.35;7.78;;;;;;;16.38;83.34;101168.56;6269004;22;20046;-77
2021/09/24 07:20:54;;;;;;;20.63;8.60;;;;;;;16.36;82.92;101162.44;6269051;22;20042;-77
2021/09/24 07:23:40;;;;;;;22.15;8.90;;;;;;;16.58;83.34;101174.06;6271228;22;20018;-77
2021/09/24 07:26:27;;;;;;;13.55;8.35;;;;;;;16.42;83.46;101172.00;6269694;22;20149;-76
2021/09/24 07:29:13;;;;;;;15.07;9.45;;;;;;;16.69;80.94;101181.63;6269344;22;20115;-77
2021/09/24 07:31:59;;;;;;;17.40;10.65;;;;;;;16.48;80.14;101177.09;6270059;22;20019;-76
2021/09/24 07:34:45;;;;;;;16.58;10.57;;;;;;;16.69;81.47;101179.88;6270718;22;20003;-77
2021/09/24 07:37:31;;;;;;;24.98;10.45;;;;;;;17.03;79.24;101183.03;6270777;22;20141;-77
2021/09/24 07:40:16;;;;;;;32.25;10.48;;;;;;;17.20;76.14;101179.75;6270116;22;20057;-77
2021/09/24 07:43:02;;;;;;;15.35;8.93;;;;;;;17.12;75.84;101174.72;6269642;22;20341;-77
2021/09/24 07:46:04;;;;;;;13.15;9.07;;;;;;;17.25;75.26;101167.22;6271678;22;20487;-76
2021/09/24 07:48:53;;;;;;;14.82;9.23;;;;;;;17.48;74.57;101177.84;6271995;22;20272;-76
2021/09/24 07:51:42;;;;;;;18.35;9.27;;;;;;;17.45;74.22;101162.06;6273881;22;20003;-76
2021/09/24 07:54:31;;;;;;;12.05;9.25;;;;;;;17.47;75.04;101147.81;6271506;22;20007;-76
2021/09/24 07:57:17;;;;;;;17.52;8.68;;;;;;;17.80;74.03;101148.28;6272225;22;20340;-77
2021/09/24 08:00:07;;;;;;;11.65;7.57;;;;;;;18.06;73.08;101148.09;6270568;22;20015;-76
2021/09/24 08:02:55;;;;;;;10.52;8.35;;;;;;;18.36;71.24;101150.34;6273379;22;20015;-75
2021/09/24 08:05:41;;;;;;;17.90;9.00;;;;;;;18.63;69.62;101148.28;6270160;22;20045;-75
2021/09/24 08:08:27;;;;;;;11.25;8.55;;;;;;;18.60;69.58;101151.06;6271655;22;20038;-76
2021/09/24 08:11:13;;;;;;;11.60;8.60;;;;;;;18.76;69.19;101157.44;6268494;22;20011;-77
2021/09/24 08:14:02;;;;;;;13.70;8.50;;;;;;;19.05;66.68;101149.06;6269375;22;20007;-76
2021/09/24 08:16:48;;;;;;;11.75;8.82;;;;;;;18.94;66.19;101138.91;6269607;22;20357;-77
2021/09/24 08:19:33;;;;;;;14.70;8.70;;;;;;;19.53;63.93;101132.66;6268686;22;20141;-75
2021/09/24 08:22:19;;;;;;;13.40;7.43;;;;;;;19.94;63.12;101135.06;6267826;22;20004;-76
2021/09/24 08:25:12;;;;;;;11.73;7.30;;;;;;;19.76;61.54;101119.97;6270584;22;20010;-76
2021/09/24 12:06:10;;;;;;;16.63;10.60;;;;;;;24.04;40.66;100759.44;6287979;22;20026;-73
2021/09/24 12:09:11;;;;;;;17.05;9.48;;;;;;;23.89;40.26;100753.34;6276710;22;20436;-72
2021/09/24 12:11:57;;;;;;;12.80;7.82;;;;;;;23.52;40.18;100757.75;6275400;22;20030;-73
2021/09/24 12:14:43;;;;;;;9.00;6.97;;;;;;;23.34;40.53;100750.16;6276797;22;20015;-74
2021/09/24 12:17:32;;;;;;;13.80;7.20;;;;;;;23.25;40.38;100732.09;6274689;22;20400;-72
2021/09/24 12:20:24;;;;;;;18.55;10.18;;;;;;;23.31;40.69;100721.81;6276961;22;20015;-72
2021/09/24 12:23:29;;;;;;;13.25;10.10;;;;;;;23.70;40.91;100698.59;6277124;22;20370;-73
2021/09/24 12:26:15;;;;;;;9.75;7.85;;;;;;;24.10;40.29;100697.44;6277232;22;20414;-72
2021/09/24 12:29:16;;;;;;;12.90;8.02;;;;;;;24.15;40.31;100698.78;6276794;22;20283;-73
2021/09/24 12:32:11;;;;;;;10.07;7.20;;;;;;;24.55;39.56;100702.06;6276994;22;20004;-74
2021/09/24 12:35:06;;;;;;;12.55;7.90;;;;;;;24.73;39.32;100704.25;6275532;22;20099;-73
2021/09/24 12:37:55;;;;;;;18.17;10.27;;;;;;;24.43;39.47;100693.09;6276346;22;20042;-74
2021/09/24 12:41:04;;;;;;;18.98;8.07;;;;;;;24.44;39.09;100702.00;6277292;22;20003;-74
2021/09/24 12:44:05;;;;;;;27.90;20.55;;;;;;;24.49;38.97;100687.31;6275826;22;20430;-72
2021/09/24 12:46:57;;;;;;;18.42;13.85;;;;;;;24.30;38.87;100684.28;6277423;22;20000;-73
2021/09/24 12:49:43;;;;;;;11.88;8.07;;;;;;;24.40;38.94;100681.78;6277097;22;20082;-73
2021/09/24 12:52:32;;;;;;;9.55;6.32;;;;;;;24.06;39.23;100670.03;6276754;22;20310;-75
2021/09/24 12:55:20;;;;;;;14.65;6.25;;;;;;;24.02;39.51;100673.06;6281250;22;20361;-73
2021/09/24 12:58:10;;;;;;;15.00;6.75;;;;;;;24.23;39.29;100666.13;6279160;22;20421;-74
2021/09/24 13:00:58;;;;;;;9.68;7.80;;;;;;;24.32;38.26;100670.78;6277917;22;20310;-75
2021/09/24 13:03:45;;;;;;;7.95;6.88;;;;;;;24.37;37.50;100661.44;6277319;22;20508;-76
2021/09/24 13:06:40;;;;;;;13.80;6.97;;;;;;;24.36;37.07;100654.38;6255979;22;20077;-74
2021/09/24 13:09:25;;;;;;;25.20;16.63;;;;;;;24.53;37.13;100653.09;6278895;22;20004;-74
2021/09/24 13:12:12;;;;;;;10.73;6.35;;;;;;;24.14;37.76;100650.75;6279002;22;20385;-73
2021/09/24 13:14:58;;;;;;;11.48;5.43;;;;;;;23.89;37.68;100651.66;6276884;22;20014;-74
2021/09/24 13:17:44;;;;;;;7.43;4.47;;;;;;;23.79;37.56;100647.09;6278262;22;20078;-74
2021/09/24 13:20:30;;;;;;;9.20;4.40;;;;;;;23.84;37.62;100655.63;6278981;22;20004;-73
2021/09/24 13:23:20;;;;;;;8.00;4.97;;;;;;;23.94;37.59;100652.19;6278092;22;20004;-74
2021/09/24 13:26:06;;;;;;;9.05;5.28;;;;;;;24.13;37.35;100651.69;6278217;22;20050;-73
2021/09/24 13:28:52;;;;;;;9.30;4.75;;;;;;;24.04;37.04;100644.34;6277413;22;20012;-73
2021/09/24 13:31:38;;;;;;;10.45;4.57;;;;;;;24.28;36.83;100648.75;6276854;22;20018;-73
2021/09/24 13:34:24;;;;;;;9.20;4.55;;;;;;;24.48;36.82;100652.59;6278578;22;20007;-74
2021/09/24 13:37:11;;;;;;;6.28;4.43;;;;;;;24.30;36.38;100645.94;6278358;22;20014;-74
2021/09/24 13:39:58;;;;;;;9.95;5.15;;;;;;;24.40;36.87;100655.00;6277858;22;20107;-74
2021/09/24 13:42:44;;;;;;;10.45;5.30;;;;;;;24.47;36.42;100650.88;6278220;22;20081;-72
2021/09/24 13:45:31;;;;;;;14.65;5.22;;;;;;;24.64;36.31;100648.66;6278305;22;20412;-73
2021/09/24 13:48:17;;;;;;;12.18;5.22;;;;;;;24.41;36.27;100654.00;6276945;22;20314;-72
2021/09/24 13:51:04;;;;;;;16.77;5.63;;;;;;;24.25;36.22;100651.63;6276355;22;20019;-72
2021/09/24 13:53:51;;;;;;;13.43;6.63;;;;;;;24.33;36.14;100649.25;6277912;22;20074;-73
2021/09/24 13:56:36;;;;;;;12.10;6.47;;;;;;;24.22;36.96;100645.66;6277956;22;20050;-72
2021/09/24 13:59:22;;;;;;;14.30;7.22;;;;;;;24.29;36.50;100649.56;6278843;22;20007;-72
2021/09/24 14:02:08;;;;;;;10.90;6.40;;;;;;;24.08;36.73;100664.56;6277874;22;20359;-72
2021/09/24 14:04:54;;;;;;;15.73;7.13;;;;;;;24.16;36.49;100649.66;6298305;22;20004;-72
2021/09/24 14:07:41;;;;;;;10.77;7.00;;;;;;;24.22;36.69;100645.66;6277225;22;20019;-73
2021/09/24 14:10:27;;;;;;;16.83;7.97;;;;;;;24.14;36.40;100635.50;6276031;22;20026;-73
2021/09/24 14:13:12;;;;;;;15.05;7.93;;;;;;;24.17;36.51;100634.44;6276626;22;20395;-73
2021/09/24 14:15:59;;;;;;;11.75;7.55;;;;;;;24.11;37.09;100630.38;6276138;22;20073;-73
2021/09/24 14:18:45;;;;;;;15.90;7.57;;;;;;;24.39;36.63;100635.38;6277494;22;20038;-73
2021/09/24 14:21:31;;;;;;;22.20;8.32;;;;;;;23.94;37.50;100637.97;6276853;22;20004;-73
2021/09/24 14:24:17;;;;;;;19.38;7.60;;;;;;;24.04;36.55;100639.84;6276896;22;20280;-73
2021/09/24 14:27:06;;;;;;;14.13;7.15;;;;;;;24.13;37.23;100625.78;6276975;22;20091;-73
2021/09/24 14:29:52;;;;;;;14.25;7.38;;;;;;;23.94;37.16;100632.63;6277424;22;20459;-72
2021/09/24 14:32:38;;;;;;;14.30;6.68;;;;;;;23.87;37.57;100634.84;6277752;22;20003;-72
2021/09/24 14:35:24;;;;;;;17.13;6.93;;;;;;;24.03;37.55;100630.09;6276766;22;20019;-73
2021/09/24 14:38:12;;;;;;;11.00;6.80;;;;;;;24.00;37.06;100632.16;6278214;22;20083;-73
2021/09/24 14:40:58;;;;;;;13.73;7.68;;;;;;;24.04;37.10;100625.59;6277661;22;20072;-71
2021/09/24 14:43:45;;;;;;;14.00;8.43;;;;;;;24.12;37.07;100634.78;6277219;22;20012;-73
2021/09/24 14:46:31;;;;;;;21.90;9.30;;;;;;;24.05;37.44;100635.34;6275506;22;20007;-71
2021/09/24 14:49:21;;;;;;;13.48;8.70;;;;;;;24.08;37.71;100637.78;6277639;22;20008;-75
2021/09/24 14:52:06;;;;;;;12.43;7.75;;;;;;;24.30;37.55;100632.56;6276499;22;20003;-70
2021/09/24 14:54:52;;;;;;;15.90;8.50;;;;;;;24.53;37.27;100621.81;6275193;22;20046;-70
2021/09/24 14:57:38;;;;;;;10.65;7.28;;;;;;;24.26;37.97;100631.09;6277032;22;20310;-71
2021/09/24 15:00:24;;;;;;;24.70;14.75;;;;;;;24.39;37.72;100631.88;6276904;22;20003;-71
2021/09/24 15:03:10;;;;;;;12.77;7.43;;;;;;;24.53;37.58;100618.25;6277912;22;20015;-71
2021/09/24 15:05:56;;;;;;;11.20;6.65;;;;;;;24.45;37.49;100621.53;6275897;22;20099;-72
2021/09/24 15:08:41;;;;;;;9.80;6.38;;;;;;;24.34;37.79;100620.66;6276329;22;20410;-71
2021/09/24 15:11:27;;;;;;;11.15;6.75;;;;;;;24.44;37.76;100621.66;6275301;22;20069;-71
2021/09/24 15:14:13;;;;;;;11.27;6.18;;;;;;;24.40;37.85;100622.84;6276491;22;20018;-72
2021/09/24 15:16:59;;;;;;;10.40;6.00;;;;;;;24.33;37.81;100621.59;6277031;22;20015;-73
2021/09/24 15:19:45;;;;;;;10.18;5.32;;;;;;;24.49;37.76;100617.66;6275317;22;20004;-72
2021/09/24 15:22:30;;;;;;;7.32;5.00;;;;;;;24.25;38.45;100618.63;6276128;22;20142;-71
2021/09/24 15:25:17;;;;;;;12.75;4.40;;;;;;;24.07;38.90;100622.72;6275267;22;20410;-71
2021/09/24 15:28:03;;;;;;;8.95;3.90;;;;;;;24.13;38.75;100630.28;6276687;22;20067;-72
2021/09/24 15:30:50;;;;;;;9.50;4.10;;;;;;;24.41;38.62;100629.91;6276080;22;20077;-71
2021/09/24 15:33:36;;;;;;;10.57;7.35;;;;;;;24.46;38.59;100633.94;6274822;22;20099;-71
2021/09/24 15:36:22;;;;;;;6.53;3.50;;;;;;;24.26;38.98;100631.09;6275926;22;20046;-72
2021/09/24 15:39:09;;;;;;;6.95;3.97;;;;;;;24.26;38.77;100639.94;6275745;22;20007;-71
2021/09/24 15:41:55;;;;;;;10.38;4.10;;;;;;;24.25;38.94;100634.72;6273884;22;20090;-71
2021/09/24 15:44:41;;;;;;;6.88;3.78;;;;;;;24.20;38.98;100644.91;6275117;22;20008;-72
2021/09/24 15:47:26;;;;;;;8.38;3.78;;;;;;;24.14;39.53;100646.22;6276629;22;20087;-71
2021/09/24 15:50:13;;;;;;;6.43;3.67;;;;;;;24.19;39.09;100644.03;6275440;22;20442;-71
2021/09/24 15:52:59;;;;;;;9.52;3.80;;;;;;;24.23;39.43;100648.19;6276345;22;20007;-72
2021/09/24 15:55:45;;;;;;;5.07;3.97;;;;;;;24.17;39.62;100648.69;6274518;22;20027;-72
2021/09/24 15:58:31;;;;;;;8.27;4.10;;;;;;;23.92;40.30;100639.88;6276727;22;20421;-72
2021/09/24 16:01:17;;;;;;;11.38;4.10;;;;;;;23.82;40.61;100645.03;6276587;22;20095;-72
2021/09/24 16:04:03;;;;;;;10.43;4.43;;;;;;;23.79;41.13;100647.91;6276905;22;20314;-72
2021/09/24 16:06:48;;;;;;;7.60;4.03;;;;;;;23.75;40.73;100656.31;6275974;22;20039;-72
2021/09/24 16:09:34;;;;;;;8.15;3.55;;;;;;;23.59;41.41;100661.03;6274617;22;20008;-72
2021/09/24 16:12:20;;;;;;;10.55;4.10;;;;;;;23.55;41.59;100659.56;6274264;22;20091;-72
2021/09/24 16:15:07;;;;;;;13.48;4.20;;;;;;;23.40;42.11;100656.16;6274774;22;20355;-72
2021/09/24 16:17:53;;;;;;;5.38;3.50;;;;;;;23.58;42.01;100662.03;6276294;22;20399;-72
2021/09/24 16:20:39;;;;;;;5.68;3.22;;;;;;;23.52;42.44;100658.78;6274516;22;20008;-73